ELNO2: N. Canadian River, El Reno, OK

Data processed at Sat Mar 10 2018 23:24


All information presented herein is the property of the government of the United States of America and may be revised or deleted at any time without prior notice.
Dissemination of this information without the expressed written consent of the Public Affairs Office, Tulsa District U.S. Army Corps of Engineers is strictly prohibited.
These data are gathered electronically and, as presented, have not undergone any form of quality control. These data are not guaranteed to be valid or correct.
Go to home page.
Go to station list.

Upstream stations:

Downstream station:
Previous Day
Next Day
Current Day
    
SHEF ID:       ELNO2     North Canadian River near El Ren
STATION TYPE:  

               PRECIP     STAGE  STAGE(2)  RIV-FLOW  WTR-TEMP   CONDUCT  BAT-LOAD
                   in        ft        ft       cfs         F   umho/cm      volt
              Ccp-Rev   Ccp-Rev   Ccp-Rev   Ccp-Rev   Ccp-Rev   Ccp-Rev   Ccp-Rev
(US/Central)
03/08 00:00      0.00      3.57      ----        37     50.16      1477     12.65
03/08 01:00      0.00      3.57      ----        37     49.33      1480     12.57
03/08 02:00      0.00      3.57      ----        37     48.49      1481     12.57
03/08 03:00      0.00      3.56      ----        36     47.62      1484     12.49
03/08 04:00      0.00      3.57      ----        37     46.67      1489     12.49
03/08 05:00      0.00      3.57      ----        37     45.81      1491     12.41
03/08 06:00      0.00      3.56      ----        36     45.05      1493     12.41
03/08 07:00      0.00      3.57      ----        37     44.37      1494     12.41
03/08 08:00      0.00      3.56      ----        36     44.02      1494     12.65
03/08 09:00      0.00      3.56      ----        36     44.40      1493     13.60
03/08 10:00      0.00      3.56      ----        36     46.02      1489     13.68
03/08 11:00      0.00      3.56      ----        36     48.04      1485     13.68
03/08 12:00      0.00      3.56      ----        36     49.71      1480     13.68
03/08 13:00      0.00      3.56      ----        36     51.48      1476     13.68
03/08 14:00      0.00      3.57      ----        37     53.92      1472     13.68
03/08 15:00      0.00      3.56      ----        36     54.52      1465     13.68
03/08 16:00      0.00      3.58      ----        38     55.29      1456     13.60
03/08 17:00      0.00      3.57      ----        37     55.38      1452     13.53
03/08 18:00      0.00      3.57      ----        37     54.57      1448     13.29
03/08 19:00      0.00      3.58      ----        38     53.76      1447     12.97
03/08 20:00      0.00      3.58      ----        38     53.53      1449     12.81
03/08 21:00      0.00      3.57      ----        37     53.28      1450     12.81
03/08 22:00      0.00      3.57      ----        37     52.79      1452     12.73
03/08 23:00      0.00      3.57      ----        37     52.18      1454     12.73